SKY27 RJTT-RJFF
Flight info
| Callsign | SKY27 |
|---|---|
| Flight time | N/A |
| Altitude | 36000 |
| Route | TIARA GUSRO Y20 KIRIN |
| Aircraft | B738/M-SDE2E3FGHIRWXY/LB1 |
Departure
| Time | 2026-05-07 13:03 |
|---|---|
| Airport | Tokyo Haneda International Airport (RJTT) |
Arrival
| Time | N/A |
|---|---|
| Airport | Fukuoka Airport (RJFF) |
| Time | Latitude | Longitude | Altitude | Speed | Heading |
|---|---|---|---|---|---|
| 2026-05-07 12:45 | 35.55252 | 139.78113 | 27 ft | 0 kts | 149° |
| 2026-05-07 12:51 | 35.55269 | 139.78102 | 27 ft | 4 kts | 157° |
| 2026-05-07 12:52 | 35.55290 | 139.78091 | 25 ft | 2 kts | 156° |
| 2026-05-07 12:52 | 35.55308 | 139.78075 | 27 ft | 4 kts | 104° |
| 2026-05-07 12:52 | 35.55305 | 139.78048 | 29 ft | 3 kts | 60° |
| 2026-05-07 12:52 | 35.55293 | 139.78021 | 25 ft | 4 kts | 63° |
| 2026-05-07 12:53 | 35.55283 | 139.77990 | 23 ft | 4 kts | 81° |
| 2026-05-07 12:53 | 35.55283 | 139.77958 | 27 ft | 4 kts | 106° |
| 2026-05-07 12:53 | 35.55295 | 139.77930 | 28 ft | 4 kts | 135° |
| 2026-05-07 12:53 | 35.55315 | 139.77911 | 26 ft | 4 kts | 150° |
| 2026-05-07 12:54 | 35.55331 | 139.77900 | 25 ft | 0 kts | 150° |
| 2026-05-07 12:57 | 35.55326 | 139.77904 | 23 ft | 3 kts | 150° |
| 2026-05-07 12:58 | 35.55285 | 139.77926 | 26 ft | 10 kts | 163° |
| 2026-05-07 12:58 | 35.55229 | 139.77870 | 25 ft | 15 kts | 263° |
| 2026-05-07 12:58 | 35.55305 | 139.77780 | 23 ft | 16 kts | 330° |
| 2026-05-07 12:58 | 35.55371 | 139.77737 | 23 ft | 16 kts | 327° |
| 2026-05-07 12:59 | 35.55462 | 139.77665 | 24 ft | 15 kts | 331° |
| 2026-05-07 12:59 | 35.55554 | 139.77605 | 25 ft | 15 kts | 335° |
| 2026-05-07 12:59 | 35.55641 | 139.77545 | 27 ft | 14 kts | 329° |
| 2026-05-07 12:59 | 35.55723 | 139.77485 | 24 ft | 13 kts | 329° |
| 2026-05-07 13:00 | 35.55802 | 139.77429 | 22 ft | 13 kts | 331° |
| 2026-05-07 13:00 | 35.55885 | 139.77369 | 22 ft | 15 kts | 330° |
| 2026-05-07 13:00 | 35.55970 | 139.77379 | 22 ft | 12 kts | 63° |
| 2026-05-07 13:00 | 35.56009 | 139.77464 | 22 ft | 11 kts | 58° |
| 2026-05-07 13:01 | 35.56059 | 139.77568 | 22 ft | 18 kts | 60° |
| 2026-05-07 13:01 | 35.56132 | 139.77724 | 24 ft | 23 kts | 59° |
| 2026-05-07 13:01 | 35.56212 | 139.77893 | 22 ft | 23 kts | 60° |
| 2026-05-07 13:01 | 35.56289 | 139.78052 | 24 ft | 20 kts | 59° |
| 2026-05-07 13:02 | 35.56357 | 139.78196 | 22 ft | 19 kts | 59° |
| 2026-05-07 13:02 | 35.56422 | 139.78335 | 24 ft | 19 kts | 60° |
| 2026-05-07 13:02 | 35.56485 | 139.78470 | 22 ft | 18 kts | 60° |
| 2026-05-07 13:02 | 35.56547 | 139.78600 | 22 ft | 17 kts | 59° |
| 2026-05-07 13:03 | 35.56535 | 139.78699 | 24 ft | 16 kts | 147° |
| 2026-05-07 13:03 | 35.56186 | 139.78942 | 23 ft | 98 kts | 150° |
| 2026-05-07 13:03 | 35.55385 | 139.79509 | 61 ft | 163 kts | 154° |
| 2026-05-07 13:03 | 35.54341 | 139.80203 | 869 ft | 168 kts | 153° |
| 2026-05-07 13:04 | 35.53442 | 139.81083 | 1893 ft | 171 kts | 143° |
| 2026-05-07 13:04 | 35.52503 | 139.82179 | 2204 ft | 203 kts | 140° |
| 2026-05-07 13:04 | 35.51426 | 139.83485 | 2460 ft | 231 kts | 139° |
| 2026-05-07 13:04 | 35.50257 | 139.84942 | 2835 ft | 247 kts | 140° |
| 2026-05-07 13:05 | 35.49025 | 139.86530 | 3176 ft | 270 kts | 134° |
| 2026-05-07 13:05 | 35.48023 | 139.88511 | 3857 ft | 283 kts | 117° |
| 2026-05-07 13:05 | 35.47466 | 139.90839 | 4783 ft | 287 kts | 101° |
| 2026-05-07 13:05 | 35.47408 | 139.93301 | 5623 ft | 293 kts | 85° |
| 2026-05-07 13:06 | 35.47861 | 139.95767 | 6401 ft | 299 kts | 70° |
| 2026-05-07 13:06 | 35.48808 | 139.98052 | 7130 ft | 305 kts | 55° |
| 2026-05-07 13:06 | 35.50205 | 140.00028 | 7834 ft | 309 kts | 39° |
| 2026-05-07 13:06 | 35.51961 | 140.01539 | 8632 ft | 308 kts | 24° |
| 2026-05-07 13:07 | 35.53954 | 140.02490 | 9404 ft | 308 kts | 9° |
| 2026-05-07 13:07 | 35.56067 | 140.02941 | 10137 ft | 309 kts | 3° |
| 2026-05-07 13:07 | 35.58252 | 140.03275 | 10500 ft | 327 kts | 1° |
| 2026-05-07 13:07 | 35.60592 | 140.03275 | 10674 ft | 346 kts | 349° |
| 2026-05-07 13:08 | 35.62988 | 140.02609 | 10852 ft | 361 kts | 336° |
| 2026-05-07 13:08 | 35.65276 | 140.01279 | 11265 ft | 366 kts | 324° |
| 2026-05-07 13:08 | 35.67288 | 139.99377 | 11899 ft | 364 kts | 312° |
| 2026-05-07 13:08 | 35.68923 | 139.97025 | 12575 ft | 361 kts | 300° |
| 2026-05-07 13:09 | 35.70104 | 139.94313 | 13241 ft | 358 kts | 285° |
| 2026-05-07 13:09 | 35.70395 | 139.91321 | 13812 ft | 354 kts | 262° |
| 2026-05-07 13:09 | 35.70057 | 139.88312 | 14386 ft | 357 kts | 262° |
| 2026-05-07 13:09 | 35.69807 | 139.85255 | 14870 ft | 362 kts | 263° |
| 2026-05-07 13:10 | 35.69608 | 139.82154 | 15381 ft | 365 kts | 264° |
| 2026-05-07 13:10 | 35.69436 | 139.79026 | 15908 ft | 368 kts | 265° |
| 2026-05-07 13:10 | 35.69279 | 139.75866 | 16416 ft | 372 kts | 265° |
| 2026-05-07 13:10 | 35.69126 | 139.72674 | 16923 ft | 376 kts | 265° |
| 2026-05-07 13:11 | 35.68975 | 139.69452 | 17414 ft | 379 kts | 265° |
| 2026-05-07 13:11 | 35.68824 | 139.66206 | 17896 ft | 382 kts | 265° |
| 2026-05-07 13:11 | 35.68670 | 139.62928 | 18348 ft | 386 kts | 265° |
| 2026-05-07 13:11 | 35.68514 | 139.59619 | 18770 ft | 388 kts | 265° |
| 2026-05-07 13:12 | 35.68356 | 139.56296 | 19205 ft | 390 kts | 265° |
| 2026-05-07 13:12 | 35.68196 | 139.52955 | 19635 ft | 393 kts | 265° |
| 2026-05-07 13:12 | 35.68034 | 139.49594 | 20102 ft | 394 kts | 265° |
| 2026-05-07 13:12 | 35.67870 | 139.46216 | 20552 ft | 396 kts | 265° |
| 2026-05-07 13:13 | 35.67704 | 139.42832 | 20974 ft | 399 kts | 265° |
| 2026-05-07 13:13 | 35.67536 | 139.39415 | 21378 ft | 401 kts | 265° |
| 2026-05-07 13:13 | 35.67366 | 139.35974 | 21784 ft | 404 kts | 265° |
| 2026-05-07 13:13 | 35.67195 | 139.32516 | 22191 ft | 406 kts | 265° |
| 2026-05-07 13:14 | 35.67021 | 139.29034 | 22599 ft | 409 kts | 265° |
| 2026-05-07 13:14 | 35.66845 | 139.25538 | 22980 ft | 411 kts | 264° |
| 2026-05-07 13:14 | 35.66668 | 139.22021 | 23353 ft | 413 kts | 264° |
| 2026-05-07 13:14 | 35.66491 | 139.18527 | 23667 ft | 416 kts | 264° |
| 2026-05-07 13:15 | 35.66309 | 139.14980 | 23998 ft | 417 kts | 264° |
| 2026-05-07 13:15 | 35.66130 | 139.11410 | 24329 ft | 418 kts | 264° |
| 2026-05-07 13:15 | 35.65967 | 139.07826 | 24652 ft | 420 kts | 265° |
| 2026-05-07 13:15 | 35.65810 | 139.04233 | 24989 ft | 421 kts | 265° |
| 2026-05-07 13:16 | 35.65653 | 139.00623 | 25314 ft | 423 kts | 265° |
| 2026-05-07 13:16 | 35.65493 | 138.97005 | 25631 ft | 425 kts | 264° |
| 2026-05-07 13:16 | 35.65330 | 138.93374 | 25919 ft | 426 kts | 264° |
| 2026-05-07 13:16 | 35.65164 | 138.89726 | 26235 ft | 428 kts | 264° |
| 2026-05-07 13:17 | 35.64995 | 138.86060 | 26504 ft | 430 kts | 264° |
| 2026-05-07 13:17 | 35.64824 | 138.82370 | 26734 ft | 433 kts | 264° |
| 2026-05-07 13:17 | 35.64651 | 138.78674 | 27027 ft | 434 kts | 264° |
| 2026-05-07 13:17 | 35.64480 | 138.75014 | 27391 ft | 434 kts | 264° |
| 2026-05-07 13:18 | 35.64306 | 138.71309 | 27687 ft | 435 kts | 264° |
| 2026-05-07 13:18 | 35.64128 | 138.67584 | 27894 ft | 438 kts | 264° |
| 2026-05-07 13:18 | 35.63943 | 138.63837 | 28125 ft | 440 kts | 264° |
| 2026-05-07 13:18 | 35.63749 | 138.60084 | 28386 ft | 441 kts | 264° |
| 2026-05-07 13:19 | 35.63552 | 138.56323 | 28637 ft | 442 kts | 264° |
| 2026-05-07 13:19 | 35.63353 | 138.52548 | 28878 ft | 443 kts | 264° |
| 2026-05-07 13:19 | 35.63153 | 138.48770 | 29190 ft | 442 kts | 264° |
| 2026-05-07 13:19 | 35.62954 | 138.45004 | 29575 ft | 440 kts | 264° |
| 2026-05-07 13:20 | 35.62755 | 138.41260 | 29977 ft | 438 kts | 264° |
| 2026-05-07 13:20 | 35.62556 | 138.37529 | 30283 ft | 437 kts | 264° |
| 2026-05-07 13:20 | 35.62356 | 138.33795 | 30521 ft | 437 kts | 263° |
| 2026-05-07 13:20 | 35.62155 | 138.30070 | 30855 ft | 436 kts | 263° |
| 2026-05-07 13:21 | 35.61954 | 138.26364 | 31227 ft | 433 kts | 263° |
| 2026-05-07 13:21 | 35.61754 | 138.22687 | 31654 ft | 429 kts | 263° |
| 2026-05-07 13:21 | 35.61552 | 138.19031 | 31993 ft | 428 kts | 263° |
| 2026-05-07 13:21 | 35.61348 | 138.15380 | 32245 ft | 429 kts | 263° |
| 2026-05-07 13:22 | 35.61145 | 138.11729 | 32565 ft | 427 kts | 263° |
| 2026-05-07 13:22 | 35.60942 | 138.08096 | 32870 ft | 427 kts | 263° |
| 2026-05-07 13:22 | 35.60737 | 138.04463 | 33188 ft | 425 kts | 263° |
| 2026-05-07 13:22 | 35.60532 | 138.00848 | 33526 ft | 423 kts | 263° |
| 2026-05-07 13:23 | 35.60325 | 137.97232 | 33734 ft | 425 kts | 263° |
| 2026-05-07 13:23 | 35.60117 | 137.93604 | 33926 ft | 426 kts | 263° |
| 2026-05-07 13:23 | 35.59911 | 137.90023 | 34183 ft | 425 kts | 263° |
| 2026-05-07 13:23 | 35.59703 | 137.86414 | 34453 ft | 423 kts | 263° |
| 2026-05-07 13:24 | 35.59494 | 137.82811 | 34711 ft | 422 kts | 263° |
| 2026-05-07 13:24 | 35.59283 | 137.79209 | 34900 ft | 422 kts | 263° |
| 2026-05-07 13:24 | 35.59038 | 137.75615 | 35079 ft | 423 kts | 262° |
| 2026-05-07 13:24 | 35.58765 | 137.72025 | 35369 ft | 421 kts | 262° |
| 2026-05-07 13:25 | 35.58486 | 137.68450 | 35578 ft | 421 kts | 262° |
| 2026-05-07 13:25 | 35.58209 | 137.64867 | 35753 ft | 421 kts | 262° |
| 2026-05-07 13:25 | 35.57935 | 137.61281 | 35952 ft | 421 kts | 262° |
| 2026-05-07 13:25 | 35.57663 | 137.57691 | 35975 ft | 423 kts | 262° |
| 2026-05-07 13:26 | 35.56873 | 137.50557 | 35985 ft | 419 kts | 253° |
| 2026-05-07 13:26 | 35.55332 | 137.43671 | 35980 ft | 418 kts | 253° |
| 2026-05-07 13:27 | 35.53807 | 137.36801 | 35967 ft | 417 kts | 253° |
| 2026-05-07 13:27 | 35.52310 | 137.29933 | 35956 ft | 416 kts | 253° |
| 2026-05-07 13:28 | 35.50810 | 137.23074 | 35973 ft | 416 kts | 253° |
| 2026-05-07 13:28 | 35.49289 | 137.16216 | 35957 ft | 417 kts | 253° |
| 2026-05-07 13:29 | 35.47757 | 137.09352 | 35956 ft | 417 kts | 253° |
| 2026-05-07 13:29 | 35.46227 | 137.02483 | 35966 ft | 418 kts | 253° |
| 2026-05-07 13:30 | 35.44689 | 136.95594 | 35946 ft | 419 kts | 253° |
| 2026-05-07 13:30 | 35.43146 | 136.88706 | 35942 ft | 419 kts | 252° |
| 2026-05-07 13:31 | 35.41596 | 136.81812 | 35938 ft | 419 kts | 252° |
| 2026-05-07 13:31 | 35.40044 | 136.74924 | 35939 ft | 419 kts | 252° |
| 2026-05-07 13:32 | 35.38498 | 136.68087 | 35939 ft | 419 kts | 252° |
| 2026-05-07 13:32 | 35.36941 | 136.61216 | 35937 ft | 418 kts | 252° |
| 2026-05-07 13:33 | 35.35383 | 136.54362 | 35946 ft | 417 kts | 253° |
| 2026-05-07 13:33 | 35.33823 | 136.47515 | 35943 ft | 417 kts | 252° |
| 2026-05-07 13:34 | 35.31482 | 136.37277 | 35929 ft | 416 kts | 252° |
| 2026-05-07 13:35 | 35.29922 | 136.30462 | 35932 ft | 415 kts | 253° |
| 2026-05-07 13:35 | 35.28364 | 136.23668 | 35929 ft | 414 kts | 253° |
| 2026-05-07 13:36 | 35.26804 | 136.16882 | 35928 ft | 414 kts | 252° |
| 2026-05-07 13:36 | 35.25240 | 136.10103 | 35935 ft | 414 kts | 253° |
| 2026-05-07 13:37 | 35.23675 | 136.03336 | 35928 ft | 413 kts | 252° |
| 2026-05-07 13:37 | 35.22106 | 135.96569 | 35928 ft | 414 kts | 253° |
| 2026-05-07 13:38 | 35.20533 | 135.89804 | 35925 ft | 414 kts | 253° |
| 2026-05-07 13:38 | 35.18956 | 135.83039 | 35921 ft | 414 kts | 252° |
| 2026-05-07 13:39 | 35.17544 | 135.76219 | 35928 ft | 414 kts | 257° |
| 2026-05-07 13:39 | 35.16398 | 135.69304 | 35941 ft | 415 kts | 257° |
| 2026-05-07 13:40 | 35.15253 | 135.62383 | 35949 ft | 416 kts | 257° |
| 2026-05-07 13:40 | 35.14091 | 135.55498 | 35921 ft | 417 kts | 257° |
| 2026-05-07 13:41 | 35.12909 | 135.48559 | 35950 ft | 417 kts | 257° |
| 2026-05-07 13:41 | 35.11721 | 135.41612 | 35934 ft | 418 kts | 257° |
| 2026-05-07 13:42 | 35.10530 | 135.34667 | 35931 ft | 417 kts | 257° |
| 2026-05-07 13:42 | 35.09336 | 135.27733 | 35927 ft | 417 kts | 257° |
| 2026-05-07 13:43 | 35.08150 | 135.20805 | 35924 ft | 416 kts | 257° |
| 2026-05-07 13:43 | 35.06968 | 135.13889 | 35922 ft | 416 kts | 257° |
| 2026-05-07 13:44 | 35.05785 | 135.06995 | 35928 ft | 415 kts | 257° |
| 2026-05-07 13:44 | 35.04801 | 135.01279 | 35936 ft | 413 kts | 257° |
| 2026-05-07 13:45 | 35.03617 | 134.94430 | 35934 ft | 413 kts | 257° |
| 2026-05-07 13:45 | 35.02419 | 134.87588 | 35929 ft | 412 kts | 257° |
| 2026-05-07 13:46 | 35.01210 | 134.80773 | 35930 ft | 410 kts | 257° |
| 2026-05-07 13:46 | 35.00002 | 134.73968 | 35906 ft | 410 kts | 257° |
| 2026-05-07 13:47 | 34.98784 | 134.67180 | 35933 ft | 410 kts | 256° |
| 2026-05-07 13:47 | 34.97460 | 134.60415 | 35940 ft | 411 kts | 256° |
| 2026-05-07 13:48 | 34.96104 | 134.53639 | 35928 ft | 412 kts | 256° |
| 2026-05-07 13:48 | 34.94750 | 134.46849 | 35922 ft | 413 kts | 256° |
| 2026-05-07 13:49 | 34.93398 | 134.40048 | 35946 ft | 413 kts | 256° |
| 2026-05-07 13:49 | 34.92040 | 134.33230 | 35926 ft | 414 kts | 256° |
| 2026-05-07 13:50 | 34.90677 | 134.26405 | 35933 ft | 415 kts | 256° |
| 2026-05-07 13:50 | 34.89310 | 134.19579 | 35919 ft | 415 kts | 256° |
| 2026-05-07 13:51 | 34.87937 | 134.12751 | 35926 ft | 415 kts | 256° |
| 2026-05-07 13:51 | 34.86563 | 134.05932 | 35939 ft | 415 kts | 256° |
| 2026-05-07 13:52 | 34.85184 | 133.99114 | 35940 ft | 415 kts | 256° |
| 2026-05-07 13:52 | 34.83803 | 133.92301 | 35926 ft | 414 kts | 256° |
| 2026-05-07 13:53 | 34.82428 | 133.85540 | 35940 ft | 414 kts | 256° |
| 2026-05-07 13:53 | 34.81013 | 133.78760 | 35947 ft | 413 kts | 256° |
| 2026-05-07 13:54 | 34.79579 | 133.72000 | 35941 ft | 413 kts | 256° |
| 2026-05-07 13:54 | 34.78143 | 133.65238 | 35922 ft | 413 kts | 256° |
| 2026-05-07 13:55 | 34.76707 | 133.58480 | 35923 ft | 413 kts | 256° |
| 2026-05-07 13:55 | 34.75268 | 133.51720 | 35924 ft | 412 kts | 256° |
| 2026-05-07 13:56 | 34.73827 | 133.44969 | 35926 ft | 413 kts | 256° |
| 2026-05-07 13:56 | 34.72379 | 133.38208 | 35932 ft | 413 kts | 256° |
| 2026-05-07 13:57 | 34.70927 | 133.31444 | 35922 ft | 413 kts | 256° |
| 2026-05-07 13:57 | 34.69471 | 133.24686 | 35931 ft | 414 kts | 256° |
| 2026-05-07 13:58 | 34.68009 | 133.17920 | 35934 ft | 414 kts | 256° |
| 2026-05-07 13:58 | 34.66544 | 133.11157 | 35923 ft | 414 kts | 256° |
| 2026-05-07 13:59 | 34.65078 | 133.04410 | 35917 ft | 413 kts | 256° |
| 2026-05-07 13:59 | 34.63610 | 132.97671 | 35933 ft | 412 kts | 256° |
| 2026-05-07 14:00 | 34.62140 | 132.90943 | 35924 ft | 412 kts | 256° |
| 2026-05-07 14:00 | 34.60670 | 132.84235 | 35922 ft | 411 kts | 256° |
| 2026-05-07 14:01 | 34.59198 | 132.77538 | 35933 ft | 410 kts | 256° |
| 2026-05-07 14:01 | 34.57727 | 132.70867 | 35925 ft | 409 kts | 256° |
| 2026-05-07 14:02 | 34.56256 | 132.64206 | 35911 ft | 408 kts | 255° |
| 2026-05-07 14:02 | 34.54785 | 132.57565 | 35940 ft | 408 kts | 255° |
| 2026-05-07 14:03 | 34.53310 | 132.50923 | 35925 ft | 408 kts | 256° |
| 2026-05-07 14:03 | 34.51830 | 132.44283 | 35915 ft | 407 kts | 255° |
| 2026-05-07 14:04 | 34.50361 | 132.37652 | 35830 ft | 409 kts | 256° |
| 2026-05-07 14:04 | 34.49624 | 132.34303 | 35575 ft | 412 kts | 255° |
| 2026-05-07 14:04 | 34.48886 | 132.30946 | 34723 ft | 418 kts | 255° |
| 2026-05-07 14:04 | 34.48136 | 132.27548 | 34028 ft | 419 kts | 255° |
| 2026-05-07 14:05 | 34.47378 | 132.24123 | 33268 ft | 421 kts | 255° |
| 2026-05-07 14:05 | 34.46627 | 132.20731 | 32525 ft | 421 kts | 255° |
| 2026-05-07 14:05 | 34.45867 | 132.17310 | 32289 ft | 422 kts | 255° |
| 2026-05-07 14:05 | 34.45101 | 132.13911 | 32141 ft | 411 kts | 254° |
| 2026-05-07 14:06 | 34.44351 | 132.10625 | 32001 ft | 398 kts | 254° |
| 2026-05-07 14:06 | 34.43623 | 132.07447 | 31940 ft | 385 kts | 254° |